sensor_id;sensor_type;location;lat;lon;timestamp;P1;durP1;ratioP1;P2;durP2;ratioP2
4214;SDS011;2121;48.062;7.850;2023-03-31T00:00:32;5.93;;;5.33;;
4214;SDS011;2121;48.062;7.850;2023-03-31T00:02:58;4.63;;;3.50;;
4214;SDS011;2121;48.062;7.850;2023-03-31T00:05:24;11.50;;;4.37;;
4214;SDS011;2121;48.062;7.850;2023-03-31T00:07:53;6.93;;;3.53;;
4214;SDS011;2121;48.062;7.850;2023-03-31T00:10:28;5.93;;;3.43;;
4214;SDS011;2121;48.062;7.850;2023-03-31T00:12:57;8.47;;;3.80;;
4214;SDS011;2121;48.062;7.850;2023-03-31T00:15:25;8.60;;;4.13;;
4214;SDS011;2121;48.062;7.850;2023-03-31T00:17:52;13.53;;;4.50;;
4214;SDS011;2121;48.062;7.850;2023-03-31T00:20:18;5.90;;;3.93;;
4214;SDS011;2121;48.062;7.850;2023-03-31T00:22:44;10.73;;;4.17;;
4214;SDS011;2121;48.062;7.850;2023-03-31T00:25:13;8.50;;;3.63;;
4214;SDS011;2121;48.062;7.850;2023-03-31T00:27:43;9.23;;;4.07;;
4214;SDS011;2121;48.062;7.850;2023-03-31T00:30:11;7.60;;;4.40;;
4214;SDS011;2121;48.062;7.850;2023-03-31T00:32:38;10.43;;;3.90;;
4214;SDS011;2121;48.062;7.850;2023-03-31T00:35:04;9.37;;;3.30;;
4214;SDS011;2121;48.062;7.850;2023-03-31T00:37:30;4.13;;;3.50;;
4214;SDS011;2121;48.062;7.850;2023-03-31T00:39:58;5.43;;;4.80;;
4214;SDS011;2121;48.062;7.850;2023-03-31T00:42:24;4.93;;;3.30;;
4214;SDS011;2121;48.062;7.850;2023-03-31T00:48:05;9.93;;;4.33;;
4214;SDS011;2121;48.062;7.850;2023-03-31T00:50:47;12.93;;;3.93;;
4214;SDS011;2121;48.062;7.850;2023-03-31T00:53:18;8.03;;;4.07;;
4214;SDS011;2121;48.062;7.850;2023-03-31T00:55:52;14.43;;;4.13;;
4214;SDS011;2121;48.062;7.850;2023-03-31T00:58:23;7.10;;;5.20;;
4214;SDS011;2121;48.062;7.850;2023-03-31T01:00:53;11.67;;;4.10;;
4214;SDS011;2121;48.062;7.850;2023-03-31T01:03:21;10.83;;;4.17;;
4214;SDS011;2121;48.062;7.850;2023-03-31T01:08:20;5.97;;;3.37;;
4214;SDS011;2121;48.062;7.850;2023-03-31T01:10:52;9.10;;;5.10;;
4214;SDS011;2121;48.062;7.850;2023-03-31T01:13:21;7.93;;;3.83;;
4214;SDS011;2121;48.062;7.850;2023-03-31T01:15:48;10.40;;;5.20;;
4214;SDS011;2121;48.062;7.850;2023-03-31T01:18:15;6.40;;;3.60;;
4214;SDS011;2121;48.062;7.850;2023-03-31T01:20:50;5.63;;;4.30;;
4214;SDS011;2121;48.062;7.850;2023-03-31T01:26:50;7.30;;;4.43;;
4214;SDS011;2121;48.062;7.850;2023-03-31T01:33:02;11.63;;;4.77;;
4214;SDS011;2121;48.062;7.850;2023-03-31T01:50:51;7.53;;;3.73;;
4214;SDS011;2121;48.062;7.850;2023-03-31T01:53:34;6.10;;;4.40;;
4214;SDS011;2121;48.062;7.850;2023-03-31T01:56:10;5.10;;;4.10;;
4214;SDS011;2121;48.062;7.850;2023-03-31T01:59:18;5.23;;;3.70;;
4214;SDS011;2121;48.062;7.850;2023-03-31T02:02:10;7.93;;;4.50;;
4214;SDS011;2121;48.062;7.850;2023-03-31T02:04:51;11.33;;;3.50;;
4214;SDS011;2121;48.062;7.850;2023-03-31T02:07:25;8.90;;;4.60;;
4214;SDS011;2121;48.062;7.850;2023-03-31T02:10:00;9.20;;;4.60;;
4214;SDS011;2121;48.062;7.850;2023-03-31T02:12:32;4.33;;;3.80;;
4214;SDS011;2121;48.062;7.850;2023-03-31T02:15:00;6.83;;;4.40;;
4214;SDS011;2121;48.062;7.850;2023-03-31T02:17:30;7.20;;;4.50;;
4214;SDS011;2121;48.062;7.850;2023-03-31T02:19:57;8.43;;;4.20;;
4214;SDS011;2121;48.062;7.850;2023-03-31T02:22:30;9.53;;;5.40;;
4214;SDS011;2121;48.062;7.850;2023-03-31T02:25:00;7.03;;;4.27;;
4214;SDS011;2121;48.062;7.850;2023-03-31T02:27:29;9.20;;;4.00;;
4214;SDS011;2121;48.062;7.850;2023-03-31T02:29:57;7.27;;;4.40;;
4214;SDS011;2121;48.062;7.850;2023-03-31T02:32:26;8.07;;;5.40;;
4214;SDS011;2121;48.062;7.850;2023-03-31T02:34:59;11.27;;;5.03;;
4214;SDS011;2121;48.062;7.850;2023-03-31T02:37:26;10.80;;;4.27;;
4214;SDS011;2121;48.062;7.850;2023-03-31T02:39:54;13.43;;;4.63;;
4214;SDS011;2121;48.062;7.850;2023-03-31T02:42:24;8.27;;;5.30;;
4214;SDS011;2121;48.062;7.850;2023-03-31T02:44:50;4.90;;;4.40;;
4214;SDS011;2121;48.062;7.850;2023-03-31T02:47:16;6.23;;;4.67;;
4214;SDS011;2121;48.062;7.850;2023-03-31T02:49:48;5.60;;;4.50;;
4214;SDS011;2121;48.062;7.850;2023-03-31T02:55:17;7.40;;;5.03;;
4214;SDS011;2121;48.062;7.850;2023-03-31T02:58:16;7.03;;;4.90;;
4214;SDS011;2121;48.062;7.850;2023-03-31T03:01:06;8.33;;;4.50;;
4214;SDS011;2121;48.062;7.850;2023-03-31T03:06:40;9.13;;;5.47;;
4214;SDS011;2121;48.062;7.850;2023-03-31T03:11:53;6.53;;;4.27;;
4214;SDS011;2121;48.062;7.850;2023-03-31T03:14:33;9.27;;;4.80;;
4214;SDS011;2121;48.062;7.850;2023-03-31T03:17:29;7.00;;;4.80;;
4214;SDS011;2121;48.062;7.850;2023-03-31T03:20:01;17.40;;;4.80;;
4214;SDS011;2121;48.062;7.850;2023-03-31T03:22:33;5.17;;;3.50;;
4214;SDS011;2121;48.062;7.850;2023-03-31T03:25:04;6.00;;;4.47;;
4214;SDS011;2121;48.062;7.850;2023-03-31T03:27:35;7.57;;;4.87;;
4214;SDS011;2121;48.062;7.850;2023-03-31T03:30:03;22.37;;;4.20;;
4214;SDS011;2121;48.062;7.850;2023-03-31T03:32:31;10.93;;;4.37;;
4214;SDS011;2121;48.062;7.850;2023-03-31T03:34:58;6.97;;;4.40;;
4214;SDS011;2121;48.062;7.850;2023-03-31T03:37:25;7.10;;;5.00;;
4214;SDS011;2121;48.062;7.850;2023-03-31T03:39:50;12.23;;;4.70;;
4214;SDS011;2121;48.062;7.850;2023-03-31T03:42:16;5.77;;;3.90;;
4214;SDS011;2121;48.062;7.850;2023-03-31T03:44:42;7.13;;;4.20;;
4214;SDS011;2121;48.062;7.850;2023-03-31T03:47:07;6.50;;;4.80;;
4214;SDS011;2121;48.062;7.850;2023-03-31T03:49:33;5.70;;;4.00;;
4214;SDS011;2121;48.062;7.850;2023-03-31T03:51:59;9.00;;;5.03;;
4214;SDS011;2121;48.062;7.850;2023-03-31T03:54:25;6.80;;;4.60;;
4214;SDS011;2121;48.062;7.850;2023-03-31T03:56:50;9.00;;;4.10;;
4214;SDS011;2121;48.062;7.850;2023-03-31T03:59:16;11.60;;;4.57;;
4214;SDS011;2121;48.062;7.850;2023-03-31T04:01:42;12.53;;;4.90;;
4214;SDS011;2121;48.062;7.850;2023-03-31T04:04:07;12.57;;;5.00;;
4214;SDS011;2121;48.062;7.850;2023-03-31T04:06:33;8.50;;;4.33;;
4214;SDS011;2121;48.062;7.850;2023-03-31T04:08:59;8.43;;;4.43;;
4214;SDS011;2121;48.062;7.850;2023-03-31T04:11:25;5.43;;;4.10;;
4214;SDS011;2121;48.062;7.850;2023-03-31T04:13:52;5.50;;;4.47;;
4214;SDS011;2121;48.062;7.850;2023-03-31T04:16:18;7.90;;;5.80;;
4214;SDS011;2121;48.062;7.850;2023-03-31T04:18:44;10.00;;;4.93;;
4214;SDS011;2121;48.062;7.850;2023-03-31T04:21:13;7.63;;;4.27;;
4214;SDS011;2121;48.062;7.850;2023-03-31T04:23:47;6.63;;;4.30;;
4214;SDS011;2121;48.062;7.850;2023-03-31T04:26:15;9.00;;;5.77;;
4214;SDS011;2121;48.062;7.850;2023-03-31T04:28:42;4.60;;;4.20;;
4214;SDS011;2121;48.062;7.850;2023-03-31T04:31:14;15.60;;;9.87;;
4214;SDS011;2121;48.062;7.850;2023-03-31T04:33:52;15.20;;;8.47;;
4214;SDS011;2121;48.062;7.850;2023-03-31T04:36:19;17.10;;;7.90;;
4214;SDS011;2121;48.062;7.850;2023-03-31T04:38:46;10.40;;;5.47;;
4214;SDS011;2121;48.062;7.850;2023-03-31T04:41:19;8.77;;;5.40;;
4214;SDS011;2121;48.062;7.850;2023-03-31T04:43:45;8.80;;;5.60;;
4214;SDS011;2121;48.062;7.850;2023-03-31T04:46:11;6.70;;;4.63;;
4214;SDS011;2121;48.062;7.850;2023-03-31T04:48:37;9.37;;;5.87;;
4214;SDS011;2121;48.062;7.850;2023-03-31T04:51:03;7.83;;;5.40;;
4214;SDS011;2121;48.062;7.850;2023-03-31T04:53:29;6.20;;;4.73;;
4214;SDS011;2121;48.062;7.850;2023-03-31T04:55:55;12.23;;;6.17;;
4214;SDS011;2121;48.062;7.850;2023-03-31T04:58:21;8.63;;;4.80;;
4214;SDS011;2121;48.062;7.850;2023-03-31T05:00:47;8.83;;;5.03;;
4214;SDS011;2121;48.062;7.850;2023-03-31T05:03:12;8.00;;;5.70;;
4214;SDS011;2121;48.062;7.850;2023-03-31T05:05:38;10.60;;;5.10;;
4214;SDS011;2121;48.062;7.850;2023-03-31T05:08:04;11.93;;;6.97;;
4214;SDS011;2121;48.062;7.850;2023-03-31T05:10:30;6.07;;;4.73;;
4214;SDS011;2121;48.062;7.850;2023-03-31T05:12:56;10.23;;;5.60;;
4214;SDS011;2121;48.062;7.850;2023-03-31T05:15:22;7.53;;;5.30;;
4214;SDS011;2121;48.062;7.850;2023-03-31T05:17:50;5.67;;;4.37;;
4214;SDS011;2121;48.062;7.850;2023-03-31T05:20:17;16.27;;;6.40;;
4214;SDS011;2121;48.062;7.850;2023-03-31T05:22:44;15.33;;;6.30;;
4214;SDS011;2121;48.062;7.850;2023-03-31T05:25:11;24.77;;;18.63;;
4214;SDS011;2121;48.062;7.850;2023-03-31T05:27:42;20.07;;;13.50;;
4214;SDS011;2121;48.062;7.850;2023-03-31T05:30:13;17.53;;;11.57;;
4214;SDS011;2121;48.062;7.850;2023-03-31T05:32:39;11.27;;;7.80;;
4214;SDS011;2121;48.062;7.850;2023-03-31T05:35:05;9.57;;;7.47;;
4214;SDS011;2121;48.062;7.850;2023-03-31T05:37:32;10.13;;;6.47;;
4214;SDS011;2121;48.062;7.850;2023-03-31T05:39:58;13.47;;;7.53;;
4214;SDS011;2121;48.062;7.850;2023-03-31T05:42:23;15.77;;;8.20;;
4214;SDS011;2121;48.062;7.850;2023-03-31T05:44:49;11.97;;;7.60;;
4214;SDS011;2121;48.062;7.850;2023-03-31T05:47:15;11.70;;;6.23;;
4214;SDS011;2121;48.062;7.850;2023-03-31T05:49:41;11.47;;;7.10;;
4214;SDS011;2121;48.062;7.850;2023-03-31T05:52:07;10.43;;;7.40;;
4214;SDS011;2121;48.062;7.850;2023-03-31T05:54:34;11.27;;;6.43;;
4214;SDS011;2121;48.062;7.850;2023-03-31T05:57:00;16.03;;;7.90;;
4214;SDS011;2121;48.062;7.850;2023-03-31T05:59:27;13.30;;;5.97;;
4214;SDS011;2121;48.062;7.850;2023-03-31T06:01:52;15.40;;;7.30;;
4214;SDS011;2121;48.062;7.850;2023-03-31T06:04:18;10.03;;;5.93;;
4214;SDS011;2121;48.062;7.850;2023-03-31T06:06:44;6.90;;;6.27;;
4214;SDS011;2121;48.062;7.850;2023-03-31T06:09:10;9.00;;;5.60;;
4214;SDS011;2121;48.062;7.850;2023-03-31T06:11:36;13.30;;;4.50;;
4214;SDS011;2121;48.062;7.850;2023-03-31T06:14:03;4.50;;;3.27;;
4214;SDS011;2121;48.062;7.850;2023-03-31T06:16:29;7.03;;;3.80;;
4214;SDS011;2121;48.062;7.850;2023-03-31T06:18:55;7.40;;;4.33;;
4214;SDS011;2121;48.062;7.850;2023-03-31T06:21:21;10.00;;;4.07;;
4214;SDS011;2121;48.062;7.850;2023-03-31T06:23:47;5.40;;;3.93;;
4214;SDS011;2121;48.062;7.850;2023-03-31T06:26:14;5.90;;;3.80;;
4214;SDS011;2121;48.062;7.850;2023-03-31T06:28:43;10.73;;;3.67;;
4214;SDS011;2121;48.062;7.850;2023-03-31T06:31:10;7.77;;;3.87;;
4214;SDS011;2121;48.062;7.850;2023-03-31T06:33:40;9.27;;;3.77;;
4214;SDS011;2121;48.062;7.850;2023-03-31T06:36:07;5.90;;;4.57;;
4214;SDS011;2121;48.062;7.850;2023-03-31T06:38:35;4.43;;;3.20;;
4214;SDS011;2121;48.062;7.850;2023-03-31T06:41:02;9.67;;;5.70;;
4214;SDS011;2121;48.062;7.850;2023-03-31T06:43:30;8.00;;;3.10;;
4214;SDS011;2121;48.062;7.850;2023-03-31T06:45:56;4.90;;;3.20;;
4214;SDS011;2121;48.062;7.850;2023-03-31T06:48:22;4.97;;;3.87;;
4214;SDS011;2121;48.062;7.850;2023-03-31T06:50:49;4.10;;;3.67;;
4214;SDS011;2121;48.062;7.850;2023-03-31T06:53:17;4.43;;;3.60;;
4214;SDS011;2121;48.062;7.850;2023-03-31T06:55:43;5.13;;;3.63;;
4214;SDS011;2121;48.062;7.850;2023-03-31T06:58:09;6.20;;;3.93;;
4214;SDS011;2121;48.062;7.850;2023-03-31T07:00:36;3.90;;;3.20;;
4214;SDS011;2121;48.062;7.850;2023-03-31T07:03:02;7.57;;;4.20;;
4214;SDS011;2121;48.062;7.850;2023-03-31T07:05:29;4.43;;;3.43;;
4214;SDS011;2121;48.062;7.850;2023-03-31T07:07:55;3.90;;;3.60;;
4214;SDS011;2121;48.062;7.850;2023-03-31T07:10:24;11.60;;;3.10;;
4214;SDS011;2121;48.062;7.850;2023-03-31T07:12:52;4.50;;;3.07;;
4214;SDS011;2121;48.062;7.850;2023-03-31T07:15:18;2.83;;;2.40;;
4214;SDS011;2121;48.062;7.850;2023-03-31T07:17:44;2.63;;;2.43;;
4214;SDS011;2121;48.062;7.850;2023-03-31T07:20:14;2.60;;;2.37;;
4214;SDS011;2121;48.062;7.850;2023-03-31T07:22:43;7.43;;;2.50;;
4214;SDS011;2121;48.062;7.850;2023-03-31T07:25:10;3.30;;;2.17;;
4214;SDS011;2121;48.062;7.850;2023-03-31T07:27:39;2.60;;;2.43;;
4214;SDS011;2121;48.062;7.850;2023-03-31T07:30:06;2.00;;;1.90;;
4214;SDS011;2121;48.062;7.850;2023-03-31T07:32:34;2.60;;;2.03;;
4214;SDS011;2121;48.062;7.850;2023-03-31T07:35:04;1.97;;;1.80;;
4214;SDS011;2121;48.062;7.850;2023-03-31T07:37:38;2.40;;;1.50;;
4214;SDS011;2121;48.062;7.850;2023-03-31T07:40:06;1.60;;;1.50;;
4214;SDS011;2121;48.062;7.850;2023-03-31T07:42:34;2.23;;;2.03;;
4214;SDS011;2121;48.062;7.850;2023-03-31T07:45:00;1.83;;;1.60;;
4214;SDS011;2121;48.062;7.850;2023-03-31T07:47:30;2.10;;;1.80;;
4214;SDS011;2121;48.062;7.850;2023-03-31T07:49:56;2.20;;;1.83;;
4214;SDS011;2121;48.062;7.850;2023-03-31T07:52:22;1.90;;;1.80;;
4214;SDS011;2121;48.062;7.850;2023-03-31T07:54:48;1.63;;;1.53;;
4214;SDS011;2121;48.062;7.850;2023-03-31T07:57:14;2.10;;;1.90;;
4214;SDS011;2121;48.062;7.850;2023-03-31T07:59:43;2.30;;;1.80;;
4214;SDS011;2121;48.062;7.850;2023-03-31T08:02:12;4.67;;;2.00;;
4214;SDS011;2121;48.062;7.850;2023-03-31T08:04:41;2.53;;;1.93;;
4214;SDS011;2121;48.062;7.850;2023-03-31T08:07:08;1.70;;;1.60;;
4214;SDS011;2121;48.062;7.850;2023-03-31T08:09:36;2.07;;;1.90;;
4214;SDS011;2121;48.062;7.850;2023-03-31T08:12:02;2.10;;;1.97;;
4214;SDS011;2121;48.062;7.850;2023-03-31T08:14:29;3.30;;;2.67;;
4214;SDS011;2121;48.062;7.850;2023-03-31T08:16:54;3.33;;;2.00;;
4214;SDS011;2121;48.062;7.850;2023-03-31T08:19:22;3.00;;;2.80;;
4214;SDS011;2121;48.062;7.850;2023-03-31T08:21:48;3.03;;;1.90;;
4214;SDS011;2121;48.062;7.850;2023-03-31T08:24:15;2.13;;;1.90;;
4214;SDS011;2121;48.062;7.850;2023-03-31T08:26:41;3.30;;;2.00;;
4214;SDS011;2121;48.062;7.850;2023-03-31T08:29:06;2.77;;;2.57;;
4214;SDS011;2121;48.062;7.850;2023-03-31T08:31:32;2.07;;;1.83;;
4214;SDS011;2121;48.062;7.850;2023-03-31T08:33:58;4.40;;;2.17;;
4214;SDS011;2121;48.062;7.850;2023-03-31T08:36:25;4.23;;;2.37;;
4214;SDS011;2121;48.062;7.850;2023-03-31T08:38:52;1.93;;;1.80;;
4214;SDS011;2121;48.062;7.850;2023-03-31T08:44:20;10.13;;;2.40;;
4214;SDS011;2121;48.062;7.850;2023-03-31T08:47:06;3.30;;;1.90;;
4214;SDS011;2121;48.062;7.850;2023-03-31T08:49:43;8.80;;;2.50;;
4214;SDS011;2121;48.062;7.850;2023-03-31T08:52:22;8.83;;;3.13;;
4214;SDS011;2121;48.062;7.850;2023-03-31T08:55:06;3.57;;;2.20;;
4214;SDS011;2121;48.062;7.850;2023-03-31T08:57:51;6.33;;;2.30;;
4214;SDS011;2121;48.062;7.850;2023-03-31T09:00:30;9.07;;;2.30;;
4214;SDS011;2121;48.062;7.850;2023-03-31T09:12:34;7.80;;;2.10;;
4214;SDS011;2121;48.062;7.850;2023-03-31T09:18:47;6.20;;;2.87;;
4214;SDS011;2121;48.062;7.850;2023-03-31T09:23:43;4.27;;;1.60;;
4214;SDS011;2121;48.062;7.850;2023-03-31T09:26:43;5.80;;;2.30;;
4214;SDS011;2121;48.062;7.850;2023-03-31T09:34:41;3.83;;;1.60;;
4214;SDS011;2121;48.062;7.850;2023-03-31T09:37:10;4.93;;;2.23;;
4214;SDS011;2121;48.062;7.850;2023-03-31T09:39:37;4.43;;;2.00;;
4214;SDS011;2121;48.062;7.850;2023-03-31T09:42:04;3.77;;;2.03;;
4214;SDS011;2121;48.062;7.850;2023-03-31T09:44:35;6.33;;;1.60;;
4214;SDS011;2121;48.062;7.850;2023-03-31T09:47:14;5.20;;;2.50;;
4214;SDS011;2121;48.062;7.850;2023-03-31T09:49:48;6.60;;;2.20;;
4214;SDS011;2121;48.062;7.850;2023-03-31T09:52:23;5.17;;;2.10;;
4214;SDS011;2121;48.062;7.850;2023-03-31T09:54:57;4.43;;;1.93;;
4214;SDS011;2121;48.062;7.850;2023-03-31T09:57:27;5.63;;;2.23;;
4214;SDS011;2121;48.062;7.850;2023-03-31T10:00:02;6.07;;;2.70;;
4214;SDS011;2121;48.062;7.850;2023-03-31T10:02:36;7.70;;;2.17;;
4214;SDS011;2121;48.062;7.850;2023-03-31T10:05:06;4.37;;;2.40;;
4214;SDS011;2121;48.062;7.850;2023-03-31T10:07:43;12.60;;;2.67;;
4214;SDS011;2121;48.062;7.850;2023-03-31T10:10:10;8.20;;;2.70;;
4214;SDS011;2121;48.062;7.850;2023-03-31T10:12:57;7.70;;;2.73;;
4214;SDS011;2121;48.062;7.850;2023-03-31T10:15:26;11.17;;;2.70;;
4214;SDS011;2121;48.062;7.850;2023-03-31T10:17:52;9.97;;;2.50;;
4214;SDS011;2121;48.062;7.850;2023-03-31T10:23:03;3.87;;;1.97;;
4214;SDS011;2121;48.062;7.850;2023-03-31T10:25:41;10.00;;;2.80;;
4214;SDS011;2121;48.062;7.850;2023-03-31T10:28:10;8.33;;;2.33;;
4214;SDS011;2121;48.062;7.850;2023-03-31T10:30:41;3.50;;;1.90;;
4214;SDS011;2121;48.062;7.850;2023-03-31T10:33:21;6.60;;;2.47;;
4214;SDS011;2121;48.062;7.850;2023-03-31T10:35:54;3.70;;;2.43;;
4214;SDS011;2121;48.062;7.850;2023-03-31T10:38:24;3.37;;;2.47;;
4214;SDS011;2121;48.062;7.850;2023-03-31T10:40:55;7.73;;;2.30;;
4214;SDS011;2121;48.062;7.850;2023-03-31T10:45:59;3.57;;;1.87;;
4214;SDS011;2121;48.062;7.850;2023-03-31T10:48:27;3.87;;;1.90;;
4214;SDS011;2121;48.062;7.850;2023-03-31T10:50:59;3.93;;;2.80;;
4214;SDS011;2121;48.062;7.850;2023-03-31T10:53:43;1.30;;;1.20;;
4214;SDS011;2121;48.062;7.850;2023-03-31T11:22:02;1.20;;;1.20;;
4214;SDS011;2121;48.062;7.850;2023-03-31T11:27:46;1.37;;;1.27;;
4214;SDS011;2121;48.062;7.850;2023-03-31T11:30:45;4.33;;;1.20;;
4214;SDS011;2121;48.062;7.850;2023-03-31T11:42:01;2.50;;;1.47;;
4214;SDS011;2121;48.062;7.850;2023-03-31T11:44:36;1.43;;;1.33;;
4214;SDS011;2121;48.062;7.850;2023-03-31T11:47:24;4.90;;;2.27;;
4214;SDS011;2121;48.062;7.850;2023-03-31T11:49:56;1.50;;;1.40;;
4214;SDS011;2121;48.062;7.850;2023-03-31T11:52:29;7.80;;;2.20;;
4214;SDS011;2121;48.062;7.850;2023-03-31T12:03:46;2.27;;;1.63;;
4214;SDS011;2121;48.062;7.850;2023-03-31T12:16:08;4.00;;;1.77;;
4214;SDS011;2121;48.062;7.850;2023-03-31T12:19:03;1.80;;;1.40;;
4214;SDS011;2121;48.062;7.850;2023-03-31T12:21:41;4.53;;;2.00;;
4214;SDS011;2121;48.062;7.850;2023-03-31T12:24:14;5.33;;;1.93;;
4214;SDS011;2121;48.062;7.850;2023-03-31T12:26:49;3.43;;;1.37;;
4214;SDS011;2121;48.062;7.850;2023-03-31T12:29:44;2.23;;;1.60;;
4214;SDS011;2121;48.062;7.850;2023-03-31T12:32:46;3.30;;;1.40;;
4214;SDS011;2121;48.062;7.850;2023-03-31T12:35:23;3.20;;;1.43;;
4214;SDS011;2121;48.062;7.850;2023-03-31T12:38:00;5.03;;;1.30;;
4214;SDS011;2121;48.062;7.850;2023-03-31T12:55:39;4.67;;;2.20;;
4214;SDS011;2121;48.062;7.850;2023-03-31T13:06:45;5.07;;;1.87;;
4214;SDS011;2121;48.062;7.850;2023-03-31T13:11:43;13.57;;;2.10;;
4214;SDS011;2121;48.062;7.850;2023-03-31T13:14:19;6.13;;;2.20;;
4214;SDS011;2121;48.062;7.850;2023-03-31T13:17:09;4.50;;;2.53;;
4214;SDS011;2121;48.062;7.850;2023-03-31T13:19:49;5.53;;;2.27;;
4214;SDS011;2121;48.062;7.850;2023-03-31T13:22:29;3.90;;;2.20;;
4214;SDS011;2121;48.062;7.850;2023-03-31T13:28:10;3.70;;;2.00;;
4214;SDS011;2121;48.062;7.850;2023-03-31T13:33:30;2.67;;;1.63;;
4214;SDS011;2121;48.062;7.850;2023-03-31T13:59:28;1.67;;;1.23;;
4214;SDS011;2121;48.062;7.850;2023-03-31T14:10:43;1.87;;;1.73;;
4214;SDS011;2121;48.062;7.850;2023-03-31T14:15:57;1.50;;;1.37;;
4214;SDS011;2121;48.062;7.850;2023-03-31T14:18:27;1.20;;;1.20;;
4214;SDS011;2121;48.062;7.850;2023-03-31T14:24:03;1.67;;;1.13;;
4214;SDS011;2121;48.062;7.850;2023-03-31T14:38:21;1.60;;;1.23;;
4214;SDS011;2121;48.062;7.850;2023-03-31T14:40:52;1.37;;;1.27;;
4214;SDS011;2121;48.062;7.850;2023-03-31T14:43:21;1.73;;;1.60;;
4214;SDS011;2121;48.062;7.850;2023-03-31T14:46:01;1.33;;;1.23;;
4214;SDS011;2121;48.062;7.850;2023-03-31T14:48:32;2.53;;;1.30;;
4214;SDS011;2121;48.062;7.850;2023-03-31T14:51:07;1.67;;;1.57;;
4214;SDS011;2121;48.062;7.850;2023-03-31T14:53:34;1.70;;;1.60;;
4214;SDS011;2121;48.062;7.850;2023-03-31T14:56:08;3.03;;;1.70;;
4214;SDS011;2121;48.062;7.850;2023-03-31T14:58:39;1.80;;;1.70;;
4214;SDS011;2121;48.062;7.850;2023-03-31T15:01:11;11.77;;;2.60;;
4214;SDS011;2121;48.062;7.850;2023-03-31T15:03:43;2.60;;;1.50;;
4214;SDS011;2121;48.062;7.850;2023-03-31T15:06:10;1.47;;;1.37;;
4214;SDS011;2121;48.062;7.850;2023-03-31T15:08:38;2.50;;;1.63;;
4214;SDS011;2121;48.062;7.850;2023-03-31T15:11:05;2.17;;;2.07;;
4214;SDS011;2121;48.062;7.850;2023-03-31T15:13:46;2.37;;;1.40;;
4214;SDS011;2121;48.062;7.850;2023-03-31T15:16:29;2.00;;;1.43;;
4214;SDS011;2121;48.062;7.850;2023-03-31T15:19:04;2.10;;;1.50;;
4214;SDS011;2121;48.062;7.850;2023-03-31T15:21:39;3.60;;;1.30;;
4214;SDS011;2121;48.062;7.850;2023-03-31T15:24:05;5.23;;;1.77;;
4214;SDS011;2121;48.062;7.850;2023-03-31T15:26:50;3.83;;;1.80;;
4214;SDS011;2121;48.062;7.850;2023-03-31T15:29:44;3.40;;;3.10;;
4214;SDS011;2121;48.062;7.850;2023-03-31T15:32:14;4.97;;;2.40;;
4214;SDS011;2121;48.062;7.850;2023-03-31T15:35:01;5.30;;;2.23;;
4214;SDS011;2121;48.062;7.850;2023-03-31T15:37:41;3.13;;;1.73;;
4214;SDS011;2121;48.062;7.850;2023-03-31T15:40:16;1.63;;;1.53;;
4214;SDS011;2121;48.062;7.850;2023-03-31T15:42:52;2.20;;;1.63;;
4214;SDS011;2121;48.062;7.850;2023-03-31T15:45:44;5.27;;;1.73;;
4214;SDS011;2121;48.062;7.850;2023-03-31T15:50:58;3.20;;;1.60;;
4214;SDS011;2121;48.062;7.850;2023-03-31T15:53:28;3.53;;;1.77;;
4214;SDS011;2121;48.062;7.850;2023-03-31T15:56:08;9.53;;;1.77;;
4214;SDS011;2121;48.062;7.850;2023-03-31T15:59:21;9.73;;;1.87;;
4214;SDS011;2121;48.062;7.850;2023-03-31T16:01:48;7.80;;;1.70;;
4214;SDS011;2121;48.062;7.850;2023-03-31T16:04:16;2.60;;;2.07;;
4214;SDS011;2121;48.062;7.850;2023-03-31T16:06:43;4.57;;;2.03;;
4214;SDS011;2121;48.062;7.850;2023-03-31T16:23:11;4.30;;;1.93;;
4214;SDS011;2121;48.062;7.850;2023-03-31T16:25:40;2.10;;;1.60;;
4214;SDS011;2121;48.062;7.850;2023-03-31T16:28:06;1.60;;;1.50;;
4214;SDS011;2121;48.062;7.850;2023-03-31T16:30:43;2.63;;;1.80;;
4214;SDS011;2121;48.062;7.850;2023-03-31T16:33:11;3.03;;;1.60;;
4214;SDS011;2121;48.062;7.850;2023-03-31T16:35:43;2.80;;;1.43;;
4214;SDS011;2121;48.062;7.850;2023-03-31T16:38:21;2.60;;;1.90;;
4214;SDS011;2121;48.062;7.850;2023-03-31T16:40:52;2.90;;;2.37;;
4214;SDS011;2121;48.062;7.850;2023-03-31T16:43:24;1.67;;;1.43;;
4214;SDS011;2121;48.062;7.850;2023-03-31T16:45:58;4.80;;;2.00;;
4214;SDS011;2121;48.062;7.850;2023-03-31T16:48:28;5.90;;;2.37;;
4214;SDS011;2121;48.062;7.850;2023-03-31T16:50:57;2.40;;;1.50;;
4214;SDS011;2121;48.062;7.850;2023-03-31T16:53:27;2.33;;;1.80;;
4214;SDS011;2121;48.062;7.850;2023-03-31T16:55:57;8.20;;;2.37;;
4214;SDS011;2121;48.062;7.850;2023-03-31T16:58:23;3.83;;;2.10;;
4214;SDS011;2121;48.062;7.850;2023-03-31T17:00:50;2.13;;;2.03;;
4214;SDS011;2121;48.062;7.850;2023-03-31T17:03:16;7.10;;;2.47;;
4214;SDS011;2121;48.062;7.850;2023-03-31T17:05:43;5.90;;;2.60;;
4214;SDS011;2121;48.062;7.850;2023-03-31T17:08:13;2.03;;;1.80;;
4214;SDS011;2121;48.062;7.850;2023-03-31T17:10:39;4.07;;;2.13;;
4214;SDS011;2121;48.062;7.850;2023-03-31T17:13:07;3.60;;;1.83;;
4214;SDS011;2121;48.062;7.850;2023-03-31T17:15:33;6.20;;;2.27;;
4214;SDS011;2121;48.062;7.850;2023-03-31T17:18:02;7.07;;;2.03;;
4214;SDS011;2121;48.062;7.850;2023-03-31T17:20:29;5.60;;;2.50;;
4214;SDS011;2121;48.062;7.850;2023-03-31T17:22:55;5.50;;;2.20;;
4214;SDS011;2121;48.062;7.850;2023-03-31T17:25:21;8.13;;;2.40;;
4214;SDS011;2121;48.062;7.850;2023-03-31T17:27:47;2.60;;;2.00;;
4214;SDS011;2121;48.062;7.850;2023-03-31T17:30:13;3.23;;;1.70;;
4214;SDS011;2121;48.062;7.850;2023-03-31T17:32:39;1.67;;;1.50;;
4214;SDS011;2121;48.062;7.850;2023-03-31T17:35:05;8.27;;;1.40;;
4214;SDS011;2121;48.062;7.850;2023-03-31T17:37:35;2.13;;;1.33;;
4214;SDS011;2121;48.062;7.850;2023-03-31T17:40:03;5.23;;;1.83;;
4214;SDS011;2121;48.062;7.850;2023-03-31T17:42:30;3.73;;;1.50;;
4214;SDS011;2121;48.062;7.850;2023-03-31T17:44:56;1.43;;;1.33;;
4214;SDS011;2121;48.062;7.850;2023-03-31T17:47:22;2.00;;;1.37;;
4214;SDS011;2121;48.062;7.850;2023-03-31T17:49:48;2.57;;;1.53;;
4214;SDS011;2121;48.062;7.850;2023-03-31T17:52:14;2.70;;;1.30;;
4214;SDS011;2121;48.062;7.850;2023-03-31T17:54:40;6.20;;;1.97;;
4214;SDS011;2121;48.062;7.850;2023-03-31T17:57:06;2.60;;;1.70;;
4214;SDS011;2121;48.062;7.850;2023-03-31T17:59:32;2.87;;;1.70;;
4214;SDS011;2121;48.062;7.850;2023-03-31T18:01:58;2.20;;;1.97;;
4214;SDS011;2121;48.062;7.850;2023-03-31T18:04:25;17.57;;;3.03;;
4214;SDS011;2121;48.062;7.850;2023-03-31T18:06:51;6.40;;;2.00;;
4214;SDS011;2121;48.062;7.850;2023-03-31T18:09:17;7.13;;;2.10;;
4214;SDS011;2121;48.062;7.850;2023-03-31T18:11:42;6.23;;;2.63;;
4214;SDS011;2121;48.062;7.850;2023-03-31T18:14:08;5.13;;;2.07;;
4214;SDS011;2121;48.062;7.850;2023-03-31T18:16:34;2.93;;;1.93;;
4214;SDS011;2121;48.062;7.850;2023-03-31T18:19:00;2.47;;;1.67;;
4214;SDS011;2121;48.062;7.850;2023-03-31T18:21:26;7.57;;;2.27;;
4214;SDS011;2121;48.062;7.850;2023-03-31T18:23:52;7.80;;;1.93;;
4214;SDS011;2121;48.062;7.850;2023-03-31T18:26:23;3.87;;;1.73;;
4214;SDS011;2121;48.062;7.850;2023-03-31T18:28:51;10.57;;;2.00;;
4214;SDS011;2121;48.062;7.850;2023-03-31T18:31:17;4.87;;;2.13;;
4214;SDS011;2121;48.062;7.850;2023-03-31T18:33:45;5.80;;;2.27;;
4214;SDS011;2121;48.062;7.850;2023-03-31T18:36:15;7.30;;;1.80;;
4214;SDS011;2121;48.062;7.850;2023-03-31T18:38:43;2.27;;;1.60;;
4214;SDS011;2121;48.062;7.850;2023-03-31T18:41:11;1.53;;;1.43;;
4214;SDS011;2121;48.062;7.850;2023-03-31T18:43:38;6.93;;;1.63;;
4214;SDS011;2121;48.062;7.850;2023-03-31T18:46:04;2.37;;;1.63;;
4214;SDS011;2121;48.062;7.850;2023-03-31T18:48:30;2.03;;;1.40;;
4214;SDS011;2121;48.062;7.850;2023-03-31T18:50:56;1.60;;;1.50;;
4214;SDS011;2121;48.062;7.850;2023-03-31T18:53:23;5.23;;;1.67;;
4214;SDS011;2121;48.062;7.850;2023-03-31T18:55:53;8.63;;;2.20;;
4214;SDS011;2121;48.062;7.850;2023-03-31T18:58:21;2.33;;;1.90;;
4214;SDS011;2121;48.062;7.850;2023-03-31T19:00:48;5.77;;;1.60;;
4214;SDS011;2121;48.062;7.850;2023-03-31T19:03:14;4.00;;;1.80;;
4214;SDS011;2121;48.062;7.850;2023-03-31T19:05:40;5.20;;;1.57;;
4214;SDS011;2121;48.062;7.850;2023-03-31T19:08:06;1.80;;;1.60;;
4214;SDS011;2121;48.062;7.850;2023-03-31T19:10:32;6.43;;;2.00;;
4214;SDS011;2121;48.062;7.850;2023-03-31T19:12:58;1.73;;;1.63;;